sensor_id;sensor_type;location;lat;lon;timestamp;P1;durP1;ratioP1;P2;durP2;ratioP2
68700;SDS011;55682;51.114;5.882;2023-07-20T00:00:52;2.06;;;2.06;;
68700;SDS011;55682;51.114;5.882;2023-07-20T00:03:19;2.28;;;2.28;;
68700;SDS011;55682;51.114;5.882;2023-07-20T00:05:48;2.46;;;2.46;;
68700;SDS011;55682;51.114;5.882;2023-07-20T00:08:15;2.18;;;2.18;;
68700;SDS011;55682;51.114;5.882;2023-07-20T00:10:41;2.16;;;2.16;;
68700;SDS011;55682;51.114;5.882;2023-07-20T00:13:07;2.52;;;2.52;;
68700;SDS011;55682;51.114;5.882;2023-07-20T00:15:33;2.33;;;2.33;;
68700;SDS011;55682;51.114;5.882;2023-07-20T00:17:59;2.25;;;2.25;;
68700;SDS011;55682;51.114;5.882;2023-07-20T00:20:25;2.22;;;2.22;;
68700;SDS011;55682;51.114;5.882;2023-07-20T00:22:51;2.55;;;2.55;;
68700;SDS011;55682;51.114;5.882;2023-07-20T00:25:17;2.50;;;2.50;;
68700;SDS011;55682;51.114;5.882;2023-07-20T00:27:43;2.78;;;2.78;;
68700;SDS011;55682;51.114;5.882;2023-07-20T00:30:09;2.66;;;2.66;;
68700;SDS011;55682;51.114;5.882;2023-07-20T00:32:35;3.02;;;3.02;;
68700;SDS011;55682;51.114;5.882;2023-07-20T00:35:01;2.73;;;2.73;;
68700;SDS011;55682;51.114;5.882;2023-07-20T00:37:28;3.06;;;3.06;;
68700;SDS011;55682;51.114;5.882;2023-07-20T00:39:54;2.96;;;2.96;;
68700;SDS011;55682;51.114;5.882;2023-07-20T00:42:20;2.63;;;2.63;;
68700;SDS011;55682;51.114;5.882;2023-07-20T00:44:45;2.91;;;2.91;;
68700;SDS011;55682;51.114;5.882;2023-07-20T00:47:11;2.86;;;2.86;;
68700;SDS011;55682;51.114;5.882;2023-07-20T00:49:37;2.60;;;2.60;;
68700;SDS011;55682;51.114;5.882;2023-07-20T00:52:05;3.02;;;3.02;;
68700;SDS011;55682;51.114;5.882;2023-07-20T00:54:32;3.16;;;3.16;;
68700;SDS011;55682;51.114;5.882;2023-07-20T00:57:00;3.02;;;3.02;;
68700;SDS011;55682;51.114;5.882;2023-07-20T00:59:26;3.03;;;3.03;;
68700;SDS011;55682;51.114;5.882;2023-07-20T01:01:52;3.15;;;3.15;;
68700;SDS011;55682;51.114;5.882;2023-07-20T01:04:18;2.78;;;2.78;;
68700;SDS011;55682;51.114;5.882;2023-07-20T01:12:46;3.39;;;3.39;;
68700;SDS011;55682;51.114;5.882;2023-07-20T01:15:13;3.10;;;3.10;;
68700;SDS011;55682;51.114;5.882;2023-07-20T01:17:39;3.23;;;3.23;;
68700;SDS011;55682;51.114;5.882;2023-07-20T01:20:08;3.15;;;3.15;;
68700;SDS011;55682;51.114;5.882;2023-07-20T01:22:43;3.29;;;3.29;;
68700;SDS011;55682;51.114;5.882;2023-07-20T01:28:22;3.14;;;3.14;;
68700;SDS011;55682;51.114;5.882;2023-07-20T01:33:44;3.05;;;3.05;;
68700;SDS011;55682;51.114;5.882;2023-07-20T01:36:13;3.13;;;3.13;;
68700;SDS011;55682;51.114;5.882;2023-07-20T01:38:42;3.12;;;3.12;;
68700;SDS011;55682;51.114;5.882;2023-07-20T01:41:09;3.05;;;3.05;;
68700;SDS011;55682;51.114;5.882;2023-07-20T01:43:36;2.98;;;2.98;;
68700;SDS011;55682;51.114;5.882;2023-07-20T01:46:04;3.20;;;3.20;;
68700;SDS011;55682;51.114;5.882;2023-07-20T01:48:29;3.19;;;3.19;;
68700;SDS011;55682;51.114;5.882;2023-07-20T01:50:55;3.00;;;3.00;;
68700;SDS011;55682;51.114;5.882;2023-07-20T01:53:22;3.17;;;3.17;;
68700;SDS011;55682;51.114;5.882;2023-07-20T01:55:48;3.06;;;3.06;;
68700;SDS011;55682;51.114;5.882;2023-07-20T01:58:13;3.11;;;3.11;;
68700;SDS011;55682;51.114;5.882;2023-07-20T02:00:39;2.87;;;2.87;;
68700;SDS011;55682;51.114;5.882;2023-07-20T02:03:05;3.29;;;3.29;;
68700;SDS011;55682;51.114;5.882;2023-07-20T02:05:31;3.06;;;3.06;;
68700;SDS011;55682;51.114;5.882;2023-07-20T02:07:56;2.99;;;2.99;;
68700;SDS011;55682;51.114;5.882;2023-07-20T02:10:22;3.06;;;3.06;;
68700;SDS011;55682;51.114;5.882;2023-07-20T02:12:48;2.98;;;2.96;;
68700;SDS011;55682;51.114;5.882;2023-07-20T02:15:14;3.21;;;3.20;;
68700;SDS011;55682;51.114;5.882;2023-07-20T02:17:41;2.87;;;2.87;;
68700;SDS011;55682;51.114;5.882;2023-07-20T02:20:08;2.89;;;2.89;;
68700;SDS011;55682;51.114;5.882;2023-07-20T02:22:37;3.17;;;3.17;;
68700;SDS011;55682;51.114;5.882;2023-07-20T02:25:04;2.85;;;2.85;;
68700;SDS011;55682;51.114;5.882;2023-07-20T02:27:31;2.99;;;2.99;;
68700;SDS011;55682;51.114;5.882;2023-07-20T02:29:56;3.03;;;3.03;;
68700;SDS011;55682;51.114;5.882;2023-07-20T02:32:22;3.07;;;3.07;;
68700;SDS011;55682;51.114;5.882;2023-07-20T02:34:48;3.09;;;3.09;;
68700;SDS011;55682;51.114;5.882;2023-07-20T02:37:13;2.93;;;2.93;;
68700;SDS011;55682;51.114;5.882;2023-07-20T02:39:39;3.11;;;3.11;;
68700;SDS011;55682;51.114;5.882;2023-07-20T02:42:05;3.12;;;3.12;;
68700;SDS011;55682;51.114;5.882;2023-07-20T02:44:31;3.16;;;3.16;;
68700;SDS011;55682;51.114;5.882;2023-07-20T02:46:57;3.14;;;3.14;;
68700;SDS011;55682;51.114;5.882;2023-07-20T02:49:22;3.27;;;3.27;;
68700;SDS011;55682;51.114;5.882;2023-07-20T02:51:48;3.09;;;3.09;;
68700;SDS011;55682;51.114;5.882;2023-07-20T02:54:14;3.06;;;3.06;;
68700;SDS011;55682;51.114;5.882;2023-07-20T02:56:40;3.07;;;3.07;;
68700;SDS011;55682;51.114;5.882;2023-07-20T02:59:06;2.88;;;2.88;;
68700;SDS011;55682;51.114;5.882;2023-07-20T03:01:31;2.89;;;2.88;;
68700;SDS011;55682;51.114;5.882;2023-07-20T03:03:57;3.26;;;3.26;;
68700;SDS011;55682;51.114;5.882;2023-07-20T03:06:23;2.95;;;2.95;;
68700;SDS011;55682;51.114;5.882;2023-07-20T03:08:49;3.07;;;3.07;;
68700;SDS011;55682;51.114;5.882;2023-07-20T03:11:17;3.17;;;3.16;;
68700;SDS011;55682;51.114;5.882;2023-07-20T03:13:44;2.98;;;2.97;;
68700;SDS011;55682;51.114;5.882;2023-07-20T03:16:11;3.24;;;3.24;;
68700;SDS011;55682;51.114;5.882;2023-07-20T03:18:41;3.06;;;3.06;;
68700;SDS011;55682;51.114;5.882;2023-07-20T03:21:08;2.94;;;2.94;;
68700;SDS011;55682;51.114;5.882;2023-07-20T03:23:37;3.29;;;3.29;;
68700;SDS011;55682;51.114;5.882;2023-07-20T03:26:03;3.18;;;3.18;;
68700;SDS011;55682;51.114;5.882;2023-07-20T03:28:30;3.03;;;3.02;;
68700;SDS011;55682;51.114;5.882;2023-07-20T03:30:56;3.19;;;3.19;;
68700;SDS011;55682;51.114;5.882;2023-07-20T03:33:28;3.21;;;3.20;;
68700;SDS011;55682;51.114;5.882;2023-07-20T03:35:56;3.10;;;3.10;;
68700;SDS011;55682;51.114;5.882;2023-07-20T03:38:24;3.09;;;3.08;;
68700;SDS011;55682;51.114;5.882;2023-07-20T03:40:58;3.43;;;3.43;;
68700;SDS011;55682;51.114;5.882;2023-07-20T03:43:25;3.42;;;3.42;;
68700;SDS011;55682;51.114;5.882;2023-07-20T03:45:52;3.54;;;3.54;;
68700;SDS011;55682;51.114;5.882;2023-07-20T03:48:21;3.65;;;3.65;;
68700;SDS011;55682;51.114;5.882;2023-07-20T03:50:49;3.62;;;3.62;;
68700;SDS011;55682;51.114;5.882;2023-07-20T03:53:17;3.90;;;3.89;;
68700;SDS011;55682;51.114;5.882;2023-07-20T03:55:46;3.97;;;3.97;;
68700;SDS011;55682;51.114;5.882;2023-07-20T03:58:14;4.18;;;4.18;;
68700;SDS011;55682;51.114;5.882;2023-07-20T04:00:43;4.26;;;4.26;;
68700;SDS011;55682;51.114;5.882;2023-07-20T04:03:10;4.62;;;4.62;;
68700;SDS011;55682;51.114;5.882;2023-07-20T04:05:37;4.89;;;4.89;;
68700;SDS011;55682;51.114;5.882;2023-07-20T04:08:02;4.83;;;4.83;;
68700;SDS011;55682;51.114;5.882;2023-07-20T04:10:28;4.96;;;4.96;;
68700;SDS011;55682;51.114;5.882;2023-07-20T04:12:54;5.49;;;5.47;;
68700;SDS011;55682;51.114;5.882;2023-07-20T04:15:19;5.71;;;5.71;;
68700;SDS011;55682;51.114;5.882;2023-07-20T04:17:45;5.87;;;5.87;;
68700;SDS011;55682;51.114;5.882;2023-07-20T04:20:11;6.10;;;6.10;;
68700;SDS011;55682;51.114;5.882;2023-07-20T04:22:36;7.86;;;7.85;;
68700;SDS011;55682;51.114;5.882;2023-07-20T04:25:03;7.75;;;7.73;;
68700;SDS011;55682;51.114;5.882;2023-07-20T04:27:29;7.45;;;7.39;;
68700;SDS011;55682;51.114;5.882;2023-07-20T04:29:55;7.74;;;7.73;;
68700;SDS011;55682;51.114;5.882;2023-07-20T04:32:23;8.38;;;8.37;;
68700;SDS011;55682;51.114;5.882;2023-07-20T04:34:48;8.68;;;8.65;;
68700;SDS011;55682;51.114;5.882;2023-07-20T04:37:14;9.40;;;9.29;;
68700;SDS011;55682;51.114;5.882;2023-07-20T04:39:40;8.84;;;8.72;;
68700;SDS011;55682;51.114;5.882;2023-07-20T04:42:09;9.31;;;9.31;;
68700;SDS011;55682;51.114;5.882;2023-07-20T04:44:35;9.41;;;9.38;;
68700;SDS011;55682;51.114;5.882;2023-07-20T04:47:01;8.67;;;8.66;;
68700;SDS011;55682;51.114;5.882;2023-07-20T04:49:30;8.57;;;8.57;;
68700;SDS011;55682;51.114;5.882;2023-07-20T04:51:56;9.41;;;9.37;;
68700;SDS011;55682;51.114;5.882;2023-07-20T04:54:22;9.36;;;9.25;;
68700;SDS011;55682;51.114;5.882;2023-07-20T04:56:48;9.41;;;9.39;;
68700;SDS011;55682;51.114;5.882;2023-07-20T04:59:14;9.46;;;9.43;;
68700;SDS011;55682;51.114;5.882;2023-07-20T05:01:39;9.05;;;9.04;;
68700;SDS011;55682;51.114;5.882;2023-07-20T05:04:05;8.57;;;8.57;;
68700;SDS011;55682;51.114;5.882;2023-07-20T05:06:31;8.69;;;8.69;;
68700;SDS011;55682;51.114;5.882;2023-07-20T05:08:57;8.62;;;8.61;;
68700;SDS011;55682;51.114;5.882;2023-07-20T05:11:22;8.48;;;8.43;;
68700;SDS011;55682;51.114;5.882;2023-07-20T05:13:48;7.75;;;7.75;;
68700;SDS011;55682;51.114;5.882;2023-07-20T05:16:14;8.03;;;8.03;;
68700;SDS011;55682;51.114;5.882;2023-07-20T05:18:40;7.99;;;7.99;;
68700;SDS011;55682;51.114;5.882;2023-07-20T05:21:06;8.18;;;8.18;;
68700;SDS011;55682;51.114;5.882;2023-07-20T05:23:33;8.14;;;8.14;;
68700;SDS011;55682;51.114;5.882;2023-07-20T05:25:58;8.76;;;8.76;;
68700;SDS011;55682;51.114;5.882;2023-07-20T05:28:25;8.71;;;8.71;;
68700;SDS011;55682;51.114;5.882;2023-07-20T05:30:54;9.12;;;9.12;;
68700;SDS011;55682;51.114;5.882;2023-07-20T05:33:21;8.67;;;8.67;;
68700;SDS011;55682;51.114;5.882;2023-07-20T05:35:47;8.94;;;8.85;;
68700;SDS011;55682;51.114;5.882;2023-07-20T05:38:12;8.31;;;8.28;;
68700;SDS011;55682;51.114;5.882;2023-07-20T05:40:42;8.36;;;8.36;;
68700;SDS011;55682;51.114;5.882;2023-07-20T05:43:09;8.19;;;8.18;;
68700;SDS011;55682;51.114;5.882;2023-07-20T05:45:36;7.86;;;7.86;;
68700;SDS011;55682;51.114;5.882;2023-07-20T05:48:01;8.01;;;8.01;;
68700;SDS011;55682;51.114;5.882;2023-07-20T05:50:27;7.80;;;7.80;;
68700;SDS011;55682;51.114;5.882;2023-07-20T05:52:53;7.76;;;7.76;;
68700;SDS011;55682;51.114;5.882;2023-07-20T05:55:20;7.90;;;7.90;;
68700;SDS011;55682;51.114;5.882;2023-07-20T05:57:46;8.08;;;8.08;;
68700;SDS011;55682;51.114;5.882;2023-07-20T06:00:13;8.09;;;8.09;;
68700;SDS011;55682;51.114;5.882;2023-07-20T06:02:39;8.39;;;8.39;;
68700;SDS011;55682;51.114;5.882;2023-07-20T06:05:08;8.28;;;8.28;;
68700;SDS011;55682;51.114;5.882;2023-07-20T06:07:37;8.55;;;8.55;;
68700;SDS011;55682;51.114;5.882;2023-07-20T06:10:03;8.77;;;8.77;;
68700;SDS011;55682;51.114;5.882;2023-07-20T06:12:31;9.06;;;9.06;;
68700;SDS011;55682;51.114;5.882;2023-07-20T06:14:57;8.63;;;8.63;;
68700;SDS011;55682;51.114;5.882;2023-07-20T06:17:23;8.91;;;8.91;;
68700;SDS011;55682;51.114;5.882;2023-07-20T06:19:48;8.36;;;8.36;;
68700;SDS011;55682;51.114;5.882;2023-07-20T06:22:14;8.27;;;8.27;;
68700;SDS011;55682;51.114;5.882;2023-07-20T06:24:40;8.30;;;8.30;;
68700;SDS011;55682;51.114;5.882;2023-07-20T06:27:06;7.92;;;7.92;;
68700;SDS011;55682;51.114;5.882;2023-07-20T06:29:31;7.47;;;7.47;;
68700;SDS011;55682;51.114;5.882;2023-07-20T06:31:57;8.01;;;8.01;;
68700;SDS011;55682;51.114;5.882;2023-07-20T06:34:23;7.94;;;7.94;;
68700;SDS011;55682;51.114;5.882;2023-07-20T06:36:49;7.49;;;7.49;;
68700;SDS011;55682;51.114;5.882;2023-07-20T06:39:14;7.53;;;7.53;;
68700;SDS011;55682;51.114;5.882;2023-07-20T06:41:40;12.10;;;11.86;;
68700;SDS011;55682;51.114;5.882;2023-07-20T06:44:06;13.96;;;12.68;;
68700;SDS011;55682;51.114;5.882;2023-07-20T06:46:33;7.71;;;7.71;;
68700;SDS011;55682;51.114;5.882;2023-07-20T06:48:58;7.60;;;7.60;;
68700;SDS011;55682;51.114;5.882;2023-07-20T06:51:24;7.22;;;7.22;;
68700;SDS011;55682;51.114;5.882;2023-07-20T06:53:50;7.14;;;7.14;;
68700;SDS011;55682;51.114;5.882;2023-07-20T06:56:15;7.31;;;7.31;;
68700;SDS011;55682;51.114;5.882;2023-07-20T06:58:41;7.55;;;7.55;;
68700;SDS011;55682;51.114;5.882;2023-07-20T07:01:07;7.13;;;7.13;;
68700;SDS011;55682;51.114;5.882;2023-07-20T07:03:33;6.41;;;6.41;;
68700;SDS011;55682;51.114;5.882;2023-07-20T07:05:59;5.98;;;5.98;;
68700;SDS011;55682;51.114;5.882;2023-07-20T07:08:25;5.13;;;5.13;;
68700;SDS011;55682;51.114;5.882;2023-07-20T07:10:51;5.18;;;5.18;;
68700;SDS011;55682;51.114;5.882;2023-07-20T07:13:17;5.54;;;5.54;;
68700;SDS011;55682;51.114;5.882;2023-07-20T07:15:44;5.49;;;5.49;;
68700;SDS011;55682;51.114;5.882;2023-07-20T07:18:09;5.05;;;5.05;;
68700;SDS011;55682;51.114;5.882;2023-07-20T07:20:35;5.22;;;5.22;;
68700;SDS011;55682;51.114;5.882;2023-07-20T07:23:01;4.92;;;4.92;;
68700;SDS011;55682;51.114;5.882;2023-07-20T07:25:26;3.38;;;3.38;;
68700;SDS011;55682;51.114;5.882;2023-07-20T07:27:53;3.52;;;3.52;;
68700;SDS011;55682;51.114;5.882;2023-07-20T07:30:19;3.72;;;3.72;;
68700;SDS011;55682;51.114;5.882;2023-07-20T07:32:45;3.75;;;3.75;;
68700;SDS011;55682;51.114;5.882;2023-07-20T07:35:11;3.21;;;3.21;;
68700;SDS011;55682;51.114;5.882;2023-07-20T07:37:37;3.30;;;3.30;;
68700;SDS011;55682;51.114;5.882;2023-07-20T07:40:03;3.93;;;3.93;;
68700;SDS011;55682;51.114;5.882;2023-07-20T07:42:31;3.78;;;3.78;;
68700;SDS011;55682;51.114;5.882;2023-07-20T07:44:56;3.90;;;3.90;;
68700;SDS011;55682;51.114;5.882;2023-07-20T07:47:22;3.95;;;3.95;;
68700;SDS011;55682;51.114;5.882;2023-07-20T07:49:48;3.83;;;3.83;;
68700;SDS011;55682;51.114;5.882;2023-07-20T07:52:14;3.30;;;3.30;;
68700;SDS011;55682;51.114;5.882;2023-07-20T07:54:40;3.39;;;3.39;;
68700;SDS011;55682;51.114;5.882;2023-07-20T07:57:06;3.49;;;3.49;;
68700;SDS011;55682;51.114;5.882;2023-07-20T07:59:31;3.58;;;3.58;;
68700;SDS011;55682;51.114;5.882;2023-07-20T08:02:02;3.25;;;3.25;;
68700;SDS011;55682;51.114;5.882;2023-07-20T08:04:30;3.16;;;3.16;;
68700;SDS011;55682;51.114;5.882;2023-07-20T08:06:56;3.45;;;3.45;;
68700;SDS011;55682;51.114;5.882;2023-07-20T08:09:24;3.13;;;3.13;;
68700;SDS011;55682;51.114;5.882;2023-07-20T08:11:51;3.49;;;3.49;;
68700;SDS011;55682;51.114;5.882;2023-07-20T08:14:16;3.48;;;3.48;;
68700;SDS011;55682;51.114;5.882;2023-07-20T08:16:42;2.80;;;2.80;;
68700;SDS011;55682;51.114;5.882;2023-07-20T08:19:08;2.52;;;2.52;;
68700;SDS011;55682;51.114;5.882;2023-07-20T08:21:34;2.79;;;2.79;;
68700;SDS011;55682;51.114;5.882;2023-07-20T08:23:59;2.76;;;2.76;;
68700;SDS011;55682;51.114;5.882;2023-07-20T08:26:25;2.92;;;2.92;;
68700;SDS011;55682;51.114;5.882;2023-07-20T08:28:51;2.81;;;2.81;;
68700;SDS011;55682;51.114;5.882;2023-07-20T08:31:17;2.67;;;2.67;;
68700;SDS011;55682;51.114;5.882;2023-07-20T08:33:43;3.43;;;3.43;;
68700;SDS011;55682;51.114;5.882;2023-07-20T08:36:08;3.28;;;3.28;;
68700;SDS011;55682;51.114;5.882;2023-07-20T08:38:34;3.27;;;3.27;;
68700;SDS011;55682;51.114;5.882;2023-07-20T08:41:00;3.19;;;3.19;;
68700;SDS011;55682;51.114;5.882;2023-07-20T08:43:27;2.83;;;2.83;;
68700;SDS011;55682;51.114;5.882;2023-07-20T08:45:56;2.62;;;2.62;;
68700;SDS011;55682;51.114;5.882;2023-07-20T08:48:22;2.12;;;2.12;;
68700;SDS011;55682;51.114;5.882;2023-07-20T08:50:51;1.96;;;1.96;;
68700;SDS011;55682;51.114;5.882;2023-07-20T08:53:21;1.79;;;1.79;;
68700;SDS011;55682;51.114;5.882;2023-07-20T08:55:48;2.23;;;2.23;;
68700;SDS011;55682;51.114;5.882;2023-07-20T08:58:16;2.08;;;2.08;;
68700;SDS011;55682;51.114;5.882;2023-07-20T09:00:43;2.33;;;2.33;;
68700;SDS011;55682;51.114;5.882;2023-07-20T09:03:10;2.34;;;2.34;;
68700;SDS011;55682;51.114;5.882;2023-07-20T09:05:36;2.12;;;2.12;;
68700;SDS011;55682;51.114;5.882;2023-07-20T09:08:05;1.60;;;1.60;;
68700;SDS011;55682;51.114;5.882;2023-07-20T09:10:30;2.14;;;2.14;;
68700;SDS011;55682;51.114;5.882;2023-07-20T09:12:56;2.06;;;2.06;;
68700;SDS011;55682;51.114;5.882;2023-07-20T09:15:22;2.40;;;2.40;;
68700;SDS011;55682;51.114;5.882;2023-07-20T09:17:49;2.20;;;2.20;;
68700;SDS011;55682;51.114;5.882;2023-07-20T09:20:16;1.83;;;1.83;;
68700;SDS011;55682;51.114;5.882;2023-07-20T09:22:43;1.54;;;1.54;;
68700;SDS011;55682;51.114;5.882;2023-07-20T09:25:11;1.63;;;1.63;;
68700;SDS011;55682;51.114;5.882;2023-07-20T09:27:41;1.50;;;1.50;;
68700;SDS011;55682;51.114;5.882;2023-07-20T09:30:09;1.39;;;1.39;;
68700;SDS011;55682;51.114;5.882;2023-07-20T09:32:47;0.94;;;0.94;;
68700;SDS011;55682;51.114;5.882;2023-07-20T09:35:16;1.04;;;1.04;;
68700;SDS011;55682;51.114;5.882;2023-07-20T09:37:49;0.78;;;0.78;;
68700;SDS011;55682;51.114;5.882;2023-07-20T09:40:19;1.27;;;1.27;;
68700;SDS011;55682;51.114;5.882;2023-07-20T09:42:45;1.33;;;1.33;;
68700;SDS011;55682;51.114;5.882;2023-07-20T09:45:12;1.35;;;1.35;;
68700;SDS011;55682;51.114;5.882;2023-07-20T09:47:38;1.33;;;1.33;;
68700;SDS011;55682;51.114;5.882;2023-07-20T09:50:05;1.33;;;1.33;;
68700;SDS011;55682;51.114;5.882;2023-07-20T09:52:38;1.46;;;1.46;;
68700;SDS011;55682;51.114;5.882;2023-07-20T09:55:08;1.30;;;1.30;;
68700;SDS011;55682;51.114;5.882;2023-07-20T09:57:36;1.42;;;1.42;;
68700;SDS011;55682;51.114;5.882;2023-07-20T10:00:03;1.34;;;1.34;;
68700;SDS011;55682;51.114;5.882;2023-07-20T10:02:42;1.22;;;1.22;;
68700;SDS011;55682;51.114;5.882;2023-07-20T10:05:10;1.38;;;1.38;;
68700;SDS011;55682;51.114;5.882;2023-07-20T10:07:41;1.25;;;1.25;;
68700;SDS011;55682;51.114;5.882;2023-07-20T10:10:10;1.33;;;1.33;;
68700;SDS011;55682;51.114;5.882;2023-07-20T10:12:36;1.39;;;1.39;;
68700;SDS011;55682;51.114;5.882;2023-07-20T10:15:12;1.33;;;1.33;;
68700;SDS011;55682;51.114;5.882;2023-07-20T10:17:48;1.22;;;1.22;;
68700;SDS011;55682;51.114;5.882;2023-07-20T10:20:26;1.25;;;1.25;;
68700;SDS011;55682;51.114;5.882;2023-07-20T10:22:53;1.06;;;1.06;;
68700;SDS011;55682;51.114;5.882;2023-07-20T10:25:24;0.85;;;0.85;;
68700;SDS011;55682;51.114;5.882;2023-07-20T10:27:50;0.93;;;0.93;;
68700;SDS011;55682;51.114;5.882;2023-07-20T10:30:17;1.01;;;1.01;;
68700;SDS011;55682;51.114;5.882;2023-07-20T10:32:44;1.01;;;1.01;;
68700;SDS011;55682;51.114;5.882;2023-07-20T10:35:14;1.05;;;1.05;;
68700;SDS011;55682;51.114;5.882;2023-07-20T10:42:57;0.99;;;0.99;;
68700;SDS011;55682;51.114;5.882;2023-07-20T10:45:41;0.98;;;0.98;;
68700;SDS011;55682;51.114;5.882;2023-07-20T10:48:13;0.95;;;0.95;;
68700;SDS011;55682;51.114;5.882;2023-07-20T10:50:41;0.84;;;0.84;;
68700;SDS011;55682;51.114;5.882;2023-07-20T10:53:12;0.96;;;0.96;;
68700;SDS011;55682;51.114;5.882;2023-07-20T10:55:39;0.83;;;0.83;;
68700;SDS011;55682;51.114;5.882;2023-07-20T10:58:06;0.74;;;0.74;;
68700;SDS011;55682;51.114;5.882;2023-07-20T11:00:56;0.89;;;0.89;;
68700;SDS011;55682;51.114;5.882;2023-07-20T11:03:28;1.07;;;1.07;;
68700;SDS011;55682;51.114;5.882;2023-07-20T11:05:56;1.15;;;1.15;;
68700;SDS011;55682;51.114;5.882;2023-07-20T11:08:38;1.23;;;1.23;;
68700;SDS011;55682;51.114;5.882;2023-07-20T11:13:57;1.10;;;1.10;;
68700;SDS011;55682;51.114;5.882;2023-07-20T11:18:58;2.88;;;2.88;;
68700;SDS011;55682;51.114;5.882;2023-07-20T11:21:25;1.22;;;1.22;;
68700;SDS011;55682;51.114;5.882;2023-07-20T11:23:52;1.22;;;1.22;;
68700;SDS011;55682;51.114;5.882;2023-07-20T11:26:17;1.29;;;1.29;;
68700;SDS011;55682;51.114;5.882;2023-07-20T11:28:50;1.31;;;1.31;;
68700;SDS011;55682;51.114;5.882;2023-07-20T11:31:20;1.71;;;1.71;;
68700;SDS011;55682;51.114;5.882;2023-07-20T11:33:46;1.34;;;1.34;;
68700;SDS011;55682;51.114;5.882;2023-07-20T11:36:12;1.30;;;1.30;;
68700;SDS011;55682;51.114;5.882;2023-07-20T11:38:41;1.36;;;1.36;;
68700;SDS011;55682;51.114;5.882;2023-07-20T11:41:11;1.38;;;1.38;;
68700;SDS011;55682;51.114;5.882;2023-07-20T11:43:38;2.32;;;2.32;;
68700;SDS011;55682;51.114;5.882;2023-07-20T11:46:06;1.78;;;1.77;;
68700;SDS011;55682;51.114;5.882;2023-07-20T11:48:31;3.05;;;2.96;;
68700;SDS011;55682;51.114;5.882;2023-07-20T11:50:57;4.25;;;3.71;;
68700;SDS011;55682;51.114;5.882;2023-07-20T11:53:24;2.25;;;2.02;;
68700;SDS011;55682;51.114;5.882;2023-07-20T11:55:50;2.10;;;2.09;;
68700;SDS011;55682;51.114;5.882;2023-07-20T11:58:17;2.07;;;2.07;;
68700;SDS011;55682;51.114;5.882;2023-07-20T12:00:44;1.79;;;1.79;;
68700;SDS011;55682;51.114;5.882;2023-07-20T12:03:11;1.43;;;1.43;;
68700;SDS011;55682;51.114;5.882;2023-07-20T12:05:40;1.46;;;1.46;;
68700;SDS011;55682;51.114;5.882;2023-07-20T12:08:06;1.35;;;1.35;;
68700;SDS011;55682;51.114;5.882;2023-07-20T12:10:32;1.35;;;1.35;;
68700;SDS011;55682;51.114;5.882;2023-07-20T12:13:02;1.25;;;1.25;;
68700;SDS011;55682;51.114;5.882;2023-07-20T12:15:32;1.40;;;1.40;;
68700;SDS011;55682;51.114;5.882;2023-07-20T12:18:01;1.28;;;1.28;;
68700;SDS011;55682;51.114;5.882;2023-07-20T12:20:32;1.42;;;1.42;;
68700;SDS011;55682;51.114;5.882;2023-07-20T12:23:02;1.56;;;1.56;;
68700;SDS011;55682;51.114;5.882;2023-07-20T12:25:34;1.53;;;1.53;;
68700;SDS011;55682;51.114;5.882;2023-07-20T12:28:05;1.69;;;1.69;;
68700;SDS011;55682;51.114;5.882;2023-07-20T12:30:34;1.51;;;1.51;;
68700;SDS011;55682;51.114;5.882;2023-07-20T12:33:01;1.39;;;1.39;;
68700;SDS011;55682;51.114;5.882;2023-07-20T12:35:27;1.25;;;1.25;;
68700;SDS011;55682;51.114;5.882;2023-07-20T12:37:55;2.17;;;2.17;;
68700;SDS011;55682;51.114;5.882;2023-07-20T12:40:20;1.76;;;1.76;;
68700;SDS011;55682;51.114;5.882;2023-07-20T12:42:46;1.35;;;1.35;;
68700;SDS011;55682;51.114;5.882;2023-07-20T12:45:12;1.30;;;1.30;;
68700;SDS011;55682;51.114;5.882;2023-07-20T12:47:39;1.29;;;1.29;;
68700;SDS011;55682;51.114;5.882;2023-07-20T12:50:06;1.23;;;1.23;;
68700;SDS011;55682;51.114;5.882;2023-07-20T12:52:32;1.21;;;1.21;;
68700;SDS011;55682;51.114;5.882;2023-07-20T12:55:01;1.11;;;1.11;;
68700;SDS011;55682;51.114;5.882;2023-07-20T12:57:27;1.28;;;1.28;;
68700;SDS011;55682;51.114;5.882;2023-07-20T12:59:53;1.62;;;1.62;;
68700;SDS011;55682;51.114;5.882;2023-07-20T13:02:19;1.65;;;1.65;;
68700;SDS011;55682;51.114;5.882;2023-07-20T13:04:44;4.84;;;4.59;;
68700;SDS011;55682;51.114;5.882;2023-07-20T13:07:10;1.47;;;1.34;;
68700;SDS011;55682;51.114;5.882;2023-07-20T13:09:39;1.35;;;1.32;;
68700;SDS011;55682;51.114;5.882;2023-07-20T13:12:04;1.17;;;1.17;;
68700;SDS011;55682;51.114;5.882;2023-07-20T13:14:30;1.33;;;1.33;;
68700;SDS011;55682;51.114;5.882;2023-07-20T13:16:56;1.40;;;1.40;;
68700;SDS011;55682;51.114;5.882;2023-07-20T13:19:21;1.39;;;1.39;;
68700;SDS011;55682;51.114;5.882;2023-07-20T13:21:47;1.29;;;1.29;;
68700;SDS011;55682;51.114;5.882;2023-07-20T13:24:13;1.34;;;1.34;;
68700;SDS011;55682;51.114;5.882;2023-07-20T13:26:39;1.35;;;1.35;;
68700;SDS011;55682;51.114;5.882;2023-07-20T13:29:04;1.25;;;1.25;;
68700;SDS011;55682;51.114;5.882;2023-07-20T13:31:30;1.41;;;1.41;;
68700;SDS011;55682;51.114;5.882;2023-07-20T13:33:56;1.43;;;1.43;;
68700;SDS011;55682;51.114;5.882;2023-07-20T13:36:23;1.20;;;1.20;;
68700;SDS011;55682;51.114;5.882;2023-07-20T13:38:49;1.36;;;1.36;;
68700;SDS011;55682;51.114;5.882;2023-07-20T13:41:15;1.35;;;1.35;;
68700;SDS011;55682;51.114;5.882;2023-07-20T13:43:41;1.19;;;1.19;;
68700;SDS011;55682;51.114;5.882;2023-07-20T13:46:07;1.26;;;1.26;;
68700;SDS011;55682;51.114;5.882;2023-07-20T13:48:33;1.31;;;1.31;;
68700;SDS011;55682;51.114;5.882;2023-07-20T13:50:58;1.24;;;1.24;;
68700;SDS011;55682;51.114;5.882;2023-07-20T13:53:24;1.38;;;1.38;;
68700;SDS011;55682;51.114;5.882;2023-07-20T13:55:50;1.30;;;1.30;;
68700;SDS011;55682;51.114;5.882;2023-07-20T13:58:15;1.47;;;1.47;;
68700;SDS011;55682;51.114;5.882;2023-07-20T14:00:41;1.32;;;1.32;;
68700;SDS011;55682;51.114;5.882;2023-07-20T14:03:06;1.44;;;1.44;;
68700;SDS011;55682;51.114;5.882;2023-07-20T14:05:33;1.60;;;1.60;;
68700;SDS011;55682;51.114;5.882;2023-07-20T14:07:59;1.42;;;1.42;;
68700;SDS011;55682;51.114;5.882;2023-07-20T14:10:24;1.30;;;1.30;;
68700;SDS011;55682;51.114;5.882;2023-07-20T14:12:50;1.45;;;1.45;;
68700;SDS011;55682;51.114;5.882;2023-07-20T14:15:16;1.38;;;1.38;;
68700;SDS011;55682;51.114;5.882;2023-07-20T14:17:43;1.23;;;1.23;;
68700;SDS011;55682;51.114;5.882;2023-07-20T14:20:08;1.34;;;1.34;;
68700;SDS011;55682;51.114;5.882;2023-07-20T14:22:34;1.38;;;1.38;;
68700;SDS011;55682;51.114;5.882;2023-07-20T14:25:00;1.42;;;1.42;;
68700;SDS011;55682;51.114;5.882;2023-07-20T14:27:26;1.42;;;1.42;;
68700;SDS011;55682;51.114;5.882;2023-07-20T14:29:51;1.41;;;1.41;;
68700;SDS011;55682;51.114;5.882;2023-07-20T14:32:18;1.28;;;1.28;;
68700;SDS011;55682;51.114;5.882;2023-07-20T14:34:44;1.33;;;1.33;;
68700;SDS011;55682;51.114;5.882;2023-07-20T14:37:09;1.35;;;1.35;;
68700;SDS011;55682;51.114;5.882;2023-07-20T14:39:35;1.47;;;1.47;;
68700;SDS011;55682;51.114;5.882;2023-07-20T14:42:01;1.30;;;1.30;;
68700;SDS011;55682;51.114;5.882;2023-07-20T14:44:29;1.34;;;1.34;;
68700;SDS011;55682;51.114;5.882;2023-07-20T14:46:54;1.28;;;1.28;;
68700;SDS011;55682;51.114;5.882;2023-07-20T14:49:21;1.25;;;1.25;;
68700;SDS011;55682;51.114;5.882;2023-07-20T14:51:46;1.19;;;1.19;;
68700;SDS011;55682;51.114;5.882;2023-07-20T14:54:12;1.29;;;1.29;;
68700;SDS011;55682;51.114;5.882;2023-07-20T14:56:39;1.30;;;1.30;;
68700;SDS011;55682;51.114;5.882;2023-07-20T14:59:13;1.41;;;1.41;;
68700;SDS011;55682;51.114;5.882;2023-07-20T15:01:39;1.37;;;1.37;;
68700;SDS011;55682;51.114;5.882;2023-07-20T15:04:04;1.27;;;1.27;;
68700;SDS011;55682;51.114;5.882;2023-07-20T15:06:30;1.11;;;1.11;;
68700;SDS011;55682;51.114;5.882;2023-07-20T15:08:56;1.03;;;1.03;;